Time;durP1;ratioP1;P1;durP2;ratioP2;P2;SDS_P1;SDS_P2;PMS_P1;PMS_P2;Temp;Humidity;BMP_temperature;BMP_pressure;BME280_temperature;BME280_humidity;BME280_pressure;Samples;Min_cycle;Max_cycle;Signal;HPM_P1;HPM_P2
2023/03/11 00:03:00;;;;;;;6.95;3.20;;;-0.10;99.90;;;;;;15417025;23;20488;-40
2023/03/11 00:09:03;;;;;;;9.20;4.05;;;-0.10;99.90;;;;;;15417877;23;20421;-41
2023/03/11 00:15:06;;;;;;;5.32;3.20;;;-0.10;99.90;;;;;;15438993;23;20025;-40
2023/03/11 00:21:15;;;;;;;7.70;3.97;;;-0.10;99.90;;;;;;15379835;23;20020;-38
2023/03/11 00:27:17;;;;;;;10.43;4.00;;;-0.10;99.90;;;;;;15420224;23;20020;-41
2023/03/11 00:33:19;;;;;;;10.13;3.58;;;0.00;99.90;;;;;;15413845;23;20068;-39
2023/03/11 00:39:22;;;;;;;5.35;3.05;;;-0.10;99.90;;;;;;15423743;23;20020;-40
2023/03/11 00:45:24;;;;;;;6.70;3.55;;;-0.10;99.90;;;;;;15420438;23;20064;-39
2023/03/11 00:51:27;;;;;;;8.68;3.40;;;0.00;99.90;;;;;;15423299;23;20052;-40
2023/03/11 00:57:28;;;;;;;6.93;3.35;;;-0.10;99.90;;;;;;15421422;23;20378;-40
2023/03/11 01:03:30;;;;;;;7.45;2.47;;;-0.10;99.90;;;;;;15420580;23;20108;-40
2023/03/11 01:09:32;;;;;;;8.77;3.10;;;0.00;99.90;;;;;;15421324;23;20134;-39
2023/03/11 01:15:36;;;;;;;5.90;2.50;;;0.00;99.90;;;;;;15423839;23;20541;-39
2023/03/11 01:21:38;;;;;;;9.02;3.10;;;-0.10;99.90;;;;;;15416358;23;20021;-38
2023/03/11 01:27:40;;;;;;;8.90;3.00;;;-0.10;99.90;;;;;;15424352;23;20565;-37
2023/03/11 01:33:42;;;;;;;5.50;2.40;;;-0.10;99.90;;;;;;15415777;23;20028;-38
2023/03/11 01:39:44;;;;;;;8.55;2.70;;;-0.10;99.90;;;;;;15424687;23;20103;-40
2023/03/11 01:45:49;;;;;;;6.63;3.10;;;0.00;99.90;;;;;;15420490;23;20095;-39
2023/03/11 01:52:02;;;;;;;8.10;3.20;;;0.00;99.90;;;;;;15418423;23;20027;-39
2023/03/11 01:58:09;;;;;;;7.28;2.65;;;-0.10;99.90;;;;;;15418218;23;20099;-39
2023/03/11 02:04:12;;;;;;;9.48;3.30;;;0.00;99.90;;;;;;15419878;23;20044;-39
2023/03/11 02:10:14;;;;;;;12.05;3.00;;;0.00;99.90;;;;;;15417421;23;20025;-39
2023/03/11 02:16:16;;;;;;;7.65;2.80;;;0.10;99.90;;;;;;15417798;23;20095;-39
2023/03/11 02:22:19;;;;;;;5.45;2.65;;;0.00;99.90;;;;;;15422079;23;20054;-39
2023/03/11 02:28:21;;;;;;;6.70;2.45;;;0.00;99.90;;;;;;15418857;23;20027;-38
2023/03/11 02:34:26;;;;;;;10.60;2.67;;;0.10;99.90;;;;;;15392990;23;20100;-39
2023/03/11 02:40:36;;;;;;;;;;;0.00;99.90;;;;;;15409710;23;20182;-39
2023/03/11 02:46:40;;;;;;;7.15;2.50;;;0.00;99.90;;;;;;15422505;23;19994;-39
2023/03/11 02:52:42;;;;;;;;;;;-0.10;99.90;;;;;;15419978;23;20032;-40
2023/03/11 02:58:44;;;;;;;5.07;2.80;;;0.00;99.90;;;;;;15417733;23;19920;-39
2023/03/11 03:04:46;;;;;;;6.88;2.95;;;-0.10;99.90;;;;;;15418273;23;20099;-39
2023/03/11 03:10:47;;;;;;;6.85;3.45;;;-0.20;99.90;;;;;;15420570;23;20025;-40
2023/03/11 03:16:49;;;;;;;6.72;2.90;;;-0.10;99.90;;;;;;15418727;23;20516;-39
2023/03/11 03:22:52;;;;;;;8.23;3.53;;;-0.10;99.90;;;;;;15419622;23;20021;-39
2023/03/11 03:28:53;;;;;;;8.23;3.67;;;-0.10;99.90;;;;;;15414793;23;20032;-39
2023/03/11 03:34:57;;;;;;;9.27;3.83;;;-0.20;99.90;;;;;;15389869;23;20028;-38
2023/03/11 03:40:59;;;;;;;8.90;3.60;;;-0.10;99.90;;;;;;15424030;23;20075;-39
2023/03/11 03:47:01;;;;;;;9.20;3.05;;;-0.20;99.90;;;;;;15428478;23;20040;-39
2023/03/11 03:53:03;;;;;;;9.90;3.10;;;-0.20;99.90;;;;;;15424617;23;20099;-39
2023/03/11 03:59:05;;;;;;;6.38;2.38;;;-0.20;99.90;;;;;;15424700;23;20027;-39
2023/03/11 04:05:07;;;;;;;8.65;3.10;;;-0.20;99.90;;;;;;15424409;23;20035;-39
2023/03/11 04:11:09;;;;;;;10.00;3.58;;;-0.20;99.90;;;;;;15425649;23;20056;-39
2023/03/11 04:17:12;;;;;;;8.27;3.05;;;-0.30;99.90;;;;;;15422092;23;20123;-38
2023/03/11 04:23:14;;;;;;;11.70;4.30;;;-0.30;99.90;;;;;;15427902;23;20124;-39
2023/03/11 04:29:16;;;;;;;10.00;3.67;;;-0.40;99.90;;;;;;15422555;23;20147;-39
2023/03/11 04:35:18;;;;;;;9.23;4.10;;;-0.40;99.90;;;;;;15426532;23;20024;-39
2023/03/11 04:41:20;;;;;;;11.20;3.85;;;-0.40;99.90;;;;;;15422687;23;20473;-39
2023/03/11 04:47:21;;;;;;;11.20;4.32;;;-0.40;99.90;;;;;;15421993;23;20020;-39
2023/03/11 04:53:23;;;;;;;12.50;3.92;;;-0.60;99.90;;;;;;15423565;23;20024;-39
2023/03/11 04:59:26;;;;;;;7.43;4.30;;;-0.80;99.90;;;;;;15426045;23;20456;-39
2023/03/11 05:05:28;;;;;;;12.13;4.30;;;-0.70;99.90;;;;;;15423878;23;20021;-39
2023/03/11 05:11:33;;;;;;;7.35;4.22;;;-0.80;99.90;;;;;;15424022;23;20028;-38
2023/03/11 05:17:35;;;;;;;8.98;4.03;;;-0.80;99.90;;;;;;15424688;23;20035;-38
2023/03/11 05:23:37;;;;;;;5.90;3.38;;;-0.80;99.90;;;;;;15423443;23;20031;-39
2023/03/11 05:29:39;;;;;;;6.30;3.08;;;-0.90;99.90;;;;;;15421390;23;20047;-38
2023/03/11 05:35:42;;;;;;;11.02;2.70;;;-1.00;99.90;;;;;;15417471;23;20052;-38
2023/03/11 05:41:44;;;;;;;9.20;2.63;;;-1.00;99.90;;;;;;15424395;23;20095;-38
2023/03/11 05:47:45;;;;;;;5.00;2.30;;;-1.00;99.90;;;;;;15394886;23;20029;-38
2023/03/11 05:53:48;;;;;;;9.00;2.03;;;-0.90;99.90;;;;;;15422089;23;20055;-39
2023/03/11 05:59:50;;;;;;;7.18;1.98;;;-0.90;99.90;;;;;;15424252;23;20048;-39
2023/03/11 06:05:51;;;;;;;7.47;2.47;;;-0.80;99.90;;;;;;15421756;23;20027;-38
2023/03/11 06:11:53;;;;;;;7.55;2.03;;;-0.70;99.90;;;;;;15422598;23;20020;-39
2023/03/11 06:17:55;;;;;;;5.95;1.83;;;-0.80;99.90;;;;;;15423928;23;20107;-38
2023/03/11 06:23:57;;;;;;;4.75;2.17;;;-0.60;99.90;;;;;;15423120;23;20024;-38
2023/03/11 06:29:59;;;;;;;10.98;2.35;;;-0.70;99.90;;;;;;15418103;23;20028;-38
2023/03/11 06:36:02;;;;;;;6.13;1.80;;;-0.60;99.90;;;;;;15414959;23;20017;-39
2023/03/11 06:42:08;;;;;;;6.63;1.70;;;-0.60;99.90;;;;;;15421197;23;20080;-39
2023/03/11 06:48:10;;;;;;;5.40;1.95;;;-0.60;99.90;;;;;;15421703;23;20025;-39
2023/03/11 06:54:11;;;;;;;5.68;2.03;;;-0.50;99.90;;;;;;15419806;23;20477;-39
2023/03/11 07:00:14;;;;;;;7.80;1.75;;;-0.50;99.90;;;;;;15416471;23;20020;-39
2023/03/11 07:06:19;;;;;;;5.28;1.30;;;-0.50;99.90;;;;;;15419288;23;20020;-39
2023/03/11 07:12:24;;;;;;;5.53;1.50;;;-0.40;99.90;;;;;;15419646;23;20373;-39
2023/03/11 07:18:26;;;;;;;7.63;1.70;;;-0.30;99.90;;;;;;15417799;23;20021;-38
2023/03/11 07:24:27;;;;;;;6.57;1.42;;;-0.30;99.90;;;;;;15419770;23;20031;-38
2023/03/11 07:30:29;;;;;;;5.03;1.73;;;-0.40;99.90;;;;;;15422720;23;20020;-38
2023/03/11 07:36:31;;;;;;;5.97;1.23;;;-0.30;99.90;;;;;;15420234;23;20168;-39
2023/03/11 07:42:33;;;;;;;4.28;1.63;;;-0.10;99.90;;;;;;15418687;23;20056;-38
2023/03/11 07:48:36;;;;;;;8.32;1.50;;;0.00;99.90;;;;;;15418465;23;20573;-39
2023/03/11 07:54:38;;;;;;;5.07;1.58;;;-0.10;99.90;;;;;;15419843;23;20042;-41
2023/03/11 08:00:40;;;;;;;5.65;1.58;;;0.20;99.90;;;;;;15422637;23;20100;-39
2023/03/11 08:06:44;;;;;;;8.57;1.70;;;0.40;99.90;;;;;;15420212;23;20020;-39
2023/03/11 08:12:46;;;;;;;4.93;1.83;;;0.60;99.90;;;;;;15420294;23;20040;-39
2023/03/11 08:18:49;;;;;;;4.80;1.40;;;0.70;99.90;;;;;;15423230;23;20103;-39
2023/03/11 08:24:52;;;;;;;4.90;1.48;;;0.90;99.90;;;;;;15420840;23;20455;-38
2023/03/11 08:30:53;;;;;;;9.80;2.13;;;1.00;99.90;;;;;;15427251;23;20156;-39
2023/03/11 08:36:56;;;;;;;4.57;1.48;;;1.20;99.90;;;;;;15422737;23;20025;-39
2023/03/11 08:42:57;;;;;;;4.15;1.60;;;1.00;99.90;;;;;;15400507;23;20043;-39
2023/03/11 08:49:01;;;;;;;5.00;1.83;;;1.10;99.90;;;;;;15425069;23;20123;-39
2023/03/11 08:55:03;;;;;;;6.32;2.00;;;1.10;99.90;;;;;;15421557;23;20080;-40
2023/03/11 09:01:07;;;;;;;7.22;1.70;;;1.40;99.90;;;;;;15412975;23;20096;-39
2023/03/11 09:07:16;;;;;;;5.75;1.52;;;1.40;99.90;;;;;;15409822;23;20800;-39
2023/03/11 09:13:19;;;;;;;5.85;1.70;;;1.50;99.90;;;;;;15423280;23;20103;-40
2023/03/11 09:19:21;;;;;;;7.88;1.73;;;1.40;99.90;;;;;;15418994;23;20021;-39
2023/03/11 09:25:23;;;;;;;7.00;1.70;;;1.50;99.90;;;;;;15421128;23;20025;-39
2023/03/11 09:31:24;;;;;;;8.77;1.90;;;1.50;99.90;;;;;;15414381;23;20023;-39
2023/03/11 09:37:29;;;;;;;8.07;2.10;;;1.50;99.90;;;;;;15425106;23;20021;-41
2023/03/11 09:43:56;;;;;;;10.15;1.85;;;1.80;99.90;;;;;;15420812;23;20399;-39
2023/03/11 09:50:25;;;;;;;5.47;1.65;;;1.70;99.90;;;;;;15424637;23;20095;-39
2023/03/11 09:56:27;;;;;;;5.28;1.60;;;1.80;99.90;;;;;;15408662;23;20021;-39
2023/03/11 10:02:31;;;;;;;5.85;1.60;;;1.90;99.90;;;;;;15387590;23;20051;-39
2023/03/11 10:08:40;;;;;;;3.17;1.50;;;1.80;99.90;;;;;;15413553;23;20036;-39
2023/03/11 10:15:04;;;;;;;5.85;1.40;;;2.00;99.90;;;;;;15413183;23;20029;-39
2023/03/11 10:21:11;;;;;;;5.27;1.50;;;2.00;99.90;;;;;;15423387;23;20037;-40
2023/03/11 10:27:19;;;;;;;6.93;1.60;;;2.50;99.90;;;;;;15422019;23;20021;-39
2023/03/11 10:33:34;;;;;;;6.55;1.45;;;2.40;99.90;;;;;;15421843;23;20025;-37
2023/03/11 10:39:36;;;;;;;;;;;2.50;99.90;;;;;;15423411;23;20024;-39
2023/03/11 10:45:43;;;;;;;8.05;2.38;;;2.40;99.90;;;;;;15417141;23;19947;-39
2023/03/11 10:51:51;;;;;;;2.05;1.10;;;2.60;99.90;;;;;;15413056;23;20106;-39
2023/03/11 10:58:06;;;;;;;6.22;1.27;;;2.80;99.90;;;;;;15416890;23;20377;-39
2023/03/11 11:04:27;;;;;;;6.55;1.45;;;2.80;99.90;;;;;;15412049;23;20409;-39
2023/03/11 11:10:30;;;;;;;5.30;1.20;;;3.00;99.90;;;;;;15412488;23;20031;-39
2023/03/11 11:16:33;;;;;;;6.85;1.42;;;3.10;99.90;;;;;;15387859;23;20021;-39
2023/03/11 11:22:36;;;;;;;5.80;1.13;;;3.20;99.90;;;;;;15391458;23;20509;-39
2023/03/11 11:28:38;;;;;;;4.88;1.27;;;3.10;99.90;;;;;;15416336;23;20167;-39
2023/03/11 11:34:40;;;;;;;7.50;1.10;;;3.20;99.90;;;;;;15401374;23;20119;-39
2023/03/11 11:40:42;;;;;;;3.30;1.10;;;3.30;99.90;;;;;;15418104;23;20024;-39
2023/03/11 11:46:55;;;;;;;7.70;1.20;;;3.60;99.90;;;;;;15409904;23;20040;-39
2023/03/11 11:53:13;;;;;;;2.63;1.00;;;3.40;99.90;;;;;;15416987;23;20099;-39
2023/03/11 11:59:18;;;;;;;3.70;1.20;;;3.60;99.90;;;;;;15417914;23;20100;-39
2023/03/11 12:05:34;;;;;;;5.68;0.88;;;3.90;99.90;;;;;;15418846;23;20024;-39
2023/03/11 12:11:48;;;;;;;3.97;0.80;;;4.10;99.90;;;;;;15425817;23;20035;-39
2023/03/11 12:17:56;;;;;;;9.00;0.90;;;3.40;99.90;;;;;;15408307;23;20016;-39
2023/03/11 12:24:28;;;;;;;4.18;1.00;;;3.90;99.90;;;;;;15422332;23;20067;-38
2023/03/11 12:30:35;;;;;;;7.10;0.98;;;4.10;99.90;;;;;;15427835;23;20020;-39
2023/03/11 12:36:43;;;;;;;6.13;0.90;;;3.90;99.90;;;;;;15426767;23;20020;-39
2023/03/11 12:42:45;;;;;;;4.00;0.73;;;3.40;99.90;;;;;;15422913;23;20651;-39
2023/03/11 12:49:06;;;;;;;4.03;0.88;;;4.00;99.90;;;;;;15421189;23;20025;-38
2023/03/11 12:55:33;;;;;;;4.97;0.90;;;4.10;99.90;;;;;;15424035;23;20032;-39
2023/03/11 13:02:07;;;;;;;8.07;1.23;;;4.20;99.90;;;;;;15423031;23;20139;-39
2023/03/11 13:08:15;;;;;;;6.72;1.10;;;4.10;99.90;;;;;;15422969;23;20142;-39
2023/03/11 13:14:27;;;;;;;5.60;0.80;;;4.30;99.90;;;;;;15423185;23;20103;-39
2023/03/11 13:20:40;;;;;;;6.05;0.90;;;4.20;99.90;;;;;;15417843;23;20540;-41
2023/03/11 13:27:03;;;;;;;4.33;1.00;;;3.50;99.90;;;;;;15423820;23;20039;-38
2023/03/11 13:33:20;;;;;;;4.82;0.98;;;3.70;99.90;;;;;;15423990;23;20096;-38
2023/03/11 13:39:43;;;;;;;2.92;0.80;;;3.90;99.90;;;;;;15425872;23;20342;-38
2023/03/11 13:46:03;;;;;;;6.07;1.00;;;3.80;99.90;;;;;;15419007;23;20102;-38
2023/03/11 13:52:22;;;;;;;2.22;0.90;;;3.40;99.90;;;;;;15392384;23;20031;-38
2023/03/11 13:58:27;;;;;;;5.50;1.13;;;3.50;99.90;;;;;;15420563;23;20055;-38
2023/03/11 14:04:32;;;;;;;5.38;1.15;;;3.80;99.90;;;;;;15420878;23;20643;-38
2023/03/11 14:10:34;;;;;;;;;;;3.70;99.90;;;;;;15419017;23;20482;-38
2023/03/11 14:16:42;;;;;;;6.05;1.20;;;3.70;99.90;;;;;;15420312;23;19916;-38
2023/03/11 14:22:47;;;;;;;5.10;0.80;;;3.90;99.90;;;;;;15417930;23;20027;-37
2023/03/11 14:28:55;;;;;;;6.67;1.10;;;4.10;99.90;;;;;;15420277;23;20024;-39
2023/03/11 14:34:57;;;;;;;5.10;1.00;;;3.90;99.90;;;;;;15420951;23;20086;-38
2023/03/11 14:41:03;;;;;;;4.18;0.95;;;3.90;99.90;;;;;;15420243;23;20470;-38
2023/03/11 14:47:31;;;;;;;7.82;1.33;;;4.00;99.90;;;;;;15416487;23;20028;-38
2023/03/11 14:53:45;;;;;;;4.63;1.10;;;4.10;99.90;;;;;;15415627;23;20026;-37
2023/03/11 14:59:49;;;;;;;6.47;1.10;;;4.20;99.90;;;;;;15417859;23;20106;-38
2023/03/11 15:06:21;;;;;;;3.15;0.93;;;4.20;99.90;;;;;;15414371;23;20358;-38
2023/03/11 15:12:41;;;;;;;3.35;0.90;;;4.10;99.90;;;;;;15415790;23;20060;-39
2023/03/11 15:18:43;;;;;;;1.70;0.70;;;4.10;99.90;;;;;;15415121;23;20405;-38
2023/03/11 15:24:56;;;;;;;3.40;1.20;;;4.10;99.90;;;;;;15415587;23;20406;-38
2023/03/11 15:31:32;;;;;;;5.43;1.75;;;4.10;99.90;;;;;;15418247;23;20060;-38
2023/03/11 15:37:34;;;;;;;6.82;1.00;;;3.90;99.90;;;;;;15395867;23;20106;-38
2023/03/11 15:43:46;;;;;;;3.33;0.90;;;3.90;99.90;;;;;;15415161;23;20362;-38
2023/03/11 15:49:48;;;;;;;6.25;1.00;;;4.00;99.90;;;;;;15416573;23;20035;-38
2023/03/11 15:55:52;;;;;;;6.63;1.20;;;3.90;99.90;;;;;;15420588;23;20032;-38
2023/03/11 16:01:55;;;;;;;3.38;1.42;;;3.90;99.90;;;;;;15418313;23;20044;-38
2023/03/11 16:07:57;;;;;;;5.60;1.20;;;3.80;99.90;;;;;;15420952;23;20107;-38
2023/03/11 16:13:59;;;;;;;4.60;1.20;;;3.80;99.90;;;;;;15422253;23;20039;-39
2023/03/11 16:20:01;;;;;;;4.22;1.25;;;3.70;99.90;;;;;;15421068;23;20506;-39
2023/03/11 16:26:04;;;;;;;2.58;0.88;;;3.60;99.90;;;;;;15419524;23;20016;-39
2023/03/11 16:32:07;;;;;;;4.93;1.50;;;3.50;99.90;;;;;;15384141;23;20107;-38
2023/03/11 16:38:09;;;;;;;5.82;1.13;;;3.40;99.90;;;;;;15419514;23;20031;-38
2023/03/11 16:44:11;;;;;;;3.80;1.13;;;3.30;99.90;;;;;;15389282;23;20052;-39
2023/03/11 16:50:13;;;;;;;3.75;1.35;;;3.20;99.90;;;;;;15417751;23;20027;-39
2023/03/11 16:56:16;;;;;;;4.57;1.70;;;2.90;99.90;;;;;;15416266;23;20052;-39
2023/03/11 17:02:18;;;;;;;5.00;1.35;;;2.80;99.90;;;;;;15415945;23;20024;-38
2023/03/11 17:08:22;;;;;;;6.60;1.90;;;2.50;99.90;;;;;;15420435;23;20510;-39
2023/03/11 17:14:24;;;;;;;6.20;2.15;;;2.30;99.90;;;;;;15420812;23;20029;-39
2023/03/11 17:20:27;;;;;;;6.70;2.92;;;2.10;99.90;;;;;;15418783;23;20020;-38
2023/03/11 17:26:30;;;;;;;9.18;2.47;;;1.80;99.90;;;;;;15416786;23;20631;-40
2023/03/11 17:32:32;;;;;;;6.13;2.42;;;1.50;99.90;;;;;;15416522;23;20090;-38
2023/03/11 17:38:34;;;;;;;3.92;1.40;;;1.40;99.90;;;;;;15395887;23;20455;-38
2023/03/11 17:44:36;;;;;;;6.53;1.70;;;1.30;99.90;;;;;;15416969;23;20021;-38
2023/03/11 17:50:51;;;;;;;6.38;1.65;;;1.20;99.90;;;;;;15414102;23;20346;-39
2023/03/11 17:56:54;;;;;;;7.70;1.80;;;1.10;99.90;;;;;;15412982;23;20443;-38
2023/03/11 18:02:56;;;;;;;5.53;1.80;;;1.00;99.90;;;;;;15421149;23;20100;-37
2023/03/11 18:08:58;;;;;;;7.10;1.90;;;1.10;99.90;;;;;;15417248;23;20024;-38
2023/03/11 18:15:04;;;;;;;5.03;1.92;;;1.00;99.90;;;;;;15416467;23;20035;-37
2023/03/11 18:21:14;;;;;;;3.40;1.48;;;1.00;99.90;;;;;;15415620;23;20031;-38
2023/03/11 18:27:16;;;;;;;3.90;1.60;;;1.00;99.90;;;;;;15417458;23;20575;-38
2023/03/11 18:33:18;;;;;;;7.93;1.65;;;1.10;99.90;;;;;;15392284;23;20029;-38
2023/03/11 18:39:20;;;;;;;3.15;1.45;;;1.10;99.90;;;;;;15416743;23;20020;-38
2023/03/11 18:45:22;;;;;;;2.80;1.35;;;1.10;99.90;;;;;;15415981;23;20099;-38
2023/03/11 18:51:25;;;;;;;4.63;1.30;;;1.20;99.90;;;;;;15417340;23;20023;-37
2023/03/11 18:57:27;;;;;;;3.17;1.10;;;1.20;99.90;;;;;;15417849;23;20103;-38
2023/03/11 19:03:29;;;;;;;6.00;1.40;;;1.20;99.90;;;;;;15412756;23;20425;-38
2023/03/11 19:09:31;;;;;;;2.80;1.10;;;1.20;99.90;;;;;;15339637;23;20025;-37
2023/03/11 19:15:36;;;;;;;3.63;1.60;;;1.20;99.90;;;;;;15345396;23;20035;-38
2023/03/11 19:21:38;;;;;;;3.33;1.45;;;1.10;99.90;;;;;;15344837;23;20024;-38
2023/03/11 19:27:40;;;;;;;4.65;1.58;;;1.10;99.90;;;;;;15345060;23;20021;-38
2023/03/11 19:33:45;;;;;;;6.82;1.83;;;1.10;99.90;;;;;;15345771;23;20149;-38
2023/03/11 19:39:47;;;;;;;4.32;1.92;;;1.10;99.90;;;;;;15344423;23;20076;-38
2023/03/11 19:45:49;;;;;;;6.93;1.60;;;1.00;99.90;;;;;;15339479;23;20032;-38
2023/03/11 19:51:51;;;;;;;5.60;1.60;;;0.90;99.90;;;;;;15343729;23;20345;-38
2023/03/11 19:57:53;;;;;;;5.90;1.75;;;0.90;99.90;;;;;;15339671;23;20025;-38
2023/03/11 20:03:55;;;;;;;8.23;2.05;;;0.90;99.90;;;;;;15336509;23;20071;-37
2023/03/11 20:09:57;;;;;;;5.57;1.73;;;0.80;99.90;;;;;;15397941;23;20028;-38
2023/03/11 20:16:13;;;;;;;5.95;1.85;;;0.80;99.90;;;;;;15413788;23;20035;-38
2023/03/11 20:22:19;;;;;;;5.65;2.15;;;0.80;99.90;;;;;;15423890;23;20028;-38
2023/03/11 20:28:20;;;;;;;7.25;2.03;;;0.80;99.90;;;;;;15421908;23;20027;-38
2023/03/11 20:34:22;;;;;;;4.47;2.10;;;0.80;99.90;;;;;;15420183;23;20464;-38
2023/03/11 20:40:24;;;;;;;9.55;2.35;;;0.80;99.90;;;;;;15421694;23;20661;-38
2023/03/11 20:46:26;;;;;;;4.78;1.92;;;0.70;99.90;;;;;;15393078;23;20379;-38
2023/03/11 20:52:34;;;;;;;8.48;2.35;;;0.70;99.90;;;;;;15416394;23;20021;-38
2023/03/11 20:58:37;;;;;;;7.20;2.25;;;0.70;99.90;;;;;;15423192;23;20490;-38
2023/03/11 21:04:41;;;;;;;6.38;2.15;;;0.80;99.90;;;;;;15415906;23;20025;-38
2023/03/11 21:10:43;;;;;;;5.38;1.92;;;0.70;99.90;;;;;;15420622;23;20016;-37
2023/03/11 21:16:45;;;;;;;6.50;2.10;;;0.70;99.90;;;;;;15420884;23;20021;-38
2023/03/11 21:22:47;;;;;;;7.60;2.33;;;0.70;99.90;;;;;;15424405;23;20064;-38
2023/03/11 21:28:49;;;;;;;5.97;2.20;;;0.70;99.90;;;;;;15422979;23;20354;-37
2023/03/11 21:34:54;;;;;;;5.50;2.17;;;0.60;99.90;;;;;;15420209;23;20035;-38
2023/03/11 21:41:11;;;;;;;8.40;2.50;;;0.60;99.90;;;;;;15411872;23;20031;-37
2023/03/11 21:47:14;;;;;;;5.57;1.90;;;0.70;99.90;;;;;;15414825;23;20027;-38
2023/03/11 21:53:17;;;;;;;5.97;2.25;;;0.70;99.90;;;;;;15393169;23;20020;-38
2023/03/11 21:59:19;;;;;;;9.50;2.20;;;0.70;99.90;;;;;;15415627;23;20025;-38
2023/03/11 22:05:21;;;;;;;5.10;2.20;;;0.60;99.90;;;;;;15390469;23;20020;-38
2023/03/11 22:11:23;;;;;;;5.65;2.47;;;0.60;99.90;;;;;;15421112;23;20081;-38
2023/03/11 22:17:25;;;;;;;5.85;1.98;;;0.60;99.90;;;;;;15418435;23;20025;-38
2023/03/11 22:23:27;;;;;;;6.00;1.65;;;0.50;99.90;;;;;;15421097;23;20079;-38
2023/03/11 22:29:29;;;;;;;7.72;2.10;;;0.50;99.90;;;;;;15418955;23;20021;-38
2023/03/11 22:35:31;;;;;;;5.20;1.90;;;0.50;99.90;;;;;;15420786;23;20103;-38
2023/03/11 22:41:33;;;;;;;5.72;1.98;;;0.50;99.90;;;;;;15420184;23;20124;-38
2023/03/11 22:47:35;;;;;;;6.88;2.63;;;0.50;99.90;;;;;;15394696;23;20082;-38
2023/03/11 22:53:37;;;;;;;5.18;1.55;;;0.50;99.90;;;;;;15416701;23;20744;-37
2023/03/11 22:59:39;;;;;;;5.85;1.75;;;0.40;99.90;;;;;;15412816;23;20106;-38
2023/03/11 23:05:41;;;;;;;6.55;2.17;;;0.30;99.90;;;;;;15418669;23;20526;-37
2023/03/11 23:11:43;;;;;;;6.63;2.00;;;0.30;99.90;;;;;;15418214;23;20028;-37
2023/03/11 23:17:45;;;;;;;4.53;2.35;;;0.30;99.90;;;;;;15416730;23;20068;-37
2023/03/11 23:23:47;;;;;;;7.22;2.30;;;0.20;99.90;;;;;;15418879;23;20395;-38
2023/03/11 23:29:49;;;;;;;6.22;2.33;;;0.10;99.90;;;;;;15418656;23;20025;-38
2023/03/11 23:35:51;;;;;;;6.28;2.55;;;0.20;99.90;;;;;;15407924;23;20035;-38
2023/03/11 23:41:54;;;;;;;7.80;2.65;;;0.10;99.90;;;;;;15417437;23;20354;-37
2023/03/11 23:47:56;;;;;;;10.18;2.97;;;0.00;99.90;;;;;;15417132;23;20029;-38
2023/03/11 23:53:57;;;;;;;7.22;3.10;;;-0.20;99.90;;;;;;15388571;23;20039;-38
2023/03/11 23:59:59;;;;;;;5.82;2.83;;;-0.30;99.90;;;;;;15421435;23;20108;-38
